AWC8ET EGJB-EGTE
Flight info
| Callsign | AWC8ET |
|---|---|
| Flight time | 0h 26m |
| Altitude | 16000 |
| Route | SKERY L22 EMWIP P16 FIMCA N22 BHD N864 DAWLY |
| Aircraft | A320/M-SDE3FGHIRWY/LB1 |
Departure
| Time | 2026-04-26 10:34 |
|---|---|
| Airport | Guernsey Airport (EGJB) |
Arrival
| Time | 2026-04-26 11:01 |
|---|---|
| Airport | Exeter International Airport (EGTE) |
| Time | Latitude | Longitude | Altitude | Speed | Heading |
|---|---|---|---|---|---|
| 2026-04-26 10:28 | 49.43363 | -2.59619 | 345 ft | 0 kts | 268° |
| 2026-04-26 10:29 | 49.43363 | -2.59620 | 345 ft | 1 kts | 268° |
| 2026-04-26 10:29 | 49.43361 | -2.59678 | 344 ft | 11 kts | 267° |
| 2026-04-26 10:30 | 49.43344 | -2.59848 | 344 ft | 21 kts | 261° |
| 2026-04-26 10:30 | 49.43339 | -2.60120 | 342 ft | 31 kts | 268° |
| 2026-04-26 10:30 | 49.43329 | -2.60493 | 330 ft | 33 kts | 266° |
| 2026-04-26 10:30 | 49.43339 | -2.60727 | 325 ft | 16 kts | 279° |
| 2026-04-26 10:31 | 49.43363 | -2.60922 | 323 ft | 21 kts | 278° |
| 2026-04-26 10:31 | 49.43362 | -2.61160 | 317 ft | 20 kts | 268° |
| 2026-04-26 10:31 | 49.43362 | -2.61219 | 316 ft | 0 kts | 275° |
| 2026-04-26 10:32 | 49.43362 | -2.61225 | 316 ft | 3 kts | 273° |
| 2026-04-26 10:32 | 49.43376 | -2.61278 | 314 ft | 8 kts | 301° |
| 2026-04-26 10:32 | 49.43428 | -2.61351 | 313 ft | 12 kts | 340° |
| 2026-04-26 10:32 | 49.43468 | -2.61259 | 315 ft | 9 kts | 87° |
| 2026-04-26 10:33 | 49.43468 | -2.61249 | 315 ft | 0 kts | 87° |
| 2026-04-26 10:33 | 49.43468 | -2.61248 | 315 ft | 0 kts | 87° |
| 2026-04-26 10:34 | 49.43469 | -2.61199 | 316 ft | 17 kts | 88° |
| 2026-04-26 10:34 | 49.43485 | -2.60592 | 329 ft | 96 kts | 87° |
| 2026-04-26 10:34 | 49.43518 | -2.59251 | 443 ft | 145 kts | 88° |
| 2026-04-26 10:34 | 49.43539 | -2.57739 | 1262 ft | 140 kts | 89° |
| 2026-04-26 10:35 | 49.43576 | -2.56217 | 1949 ft | 149 kts | 89° |
| 2026-04-26 10:35 | 49.43624 | -2.54492 | 2500 ft | 174 kts | 88° |
| 2026-04-26 10:35 | 49.43685 | -2.52508 | 3036 ft | 197 kts | 86° |
| 2026-04-26 10:35 | 49.43998 | -2.50331 | 3416 ft | 222 kts | 67° |
| 2026-04-26 10:36 | 49.44855 | -2.48204 | 3868 ft | 249 kts | 48° |
| 2026-04-26 10:36 | 49.46265 | -2.46512 | 3999 ft | 263 kts | 25° |
| 2026-04-26 10:36 | 49.48026 | -2.45775 | 4011 ft | 264 kts | 3° |
| 2026-04-26 10:36 | 49.49838 | -2.46122 | 4012 ft | 264 kts | 341° |
| 2026-04-26 10:37 | 49.51441 | -2.47512 | 4010 ft | 268 kts | 319° |
| 2026-04-26 10:37 | 49.52582 | -2.49778 | 4013 ft | 270 kts | 295° |
| 2026-04-26 10:37 | 49.53312 | -2.52447 | 4013 ft | 272 kts | 292° |
| 2026-04-26 10:37 | 49.54022 | -2.55104 | 4014 ft | 272 kts | 292° |
| 2026-04-26 10:38 | 49.54744 | -2.57796 | 4012 ft | 272 kts | 292° |
| 2026-04-26 10:38 | 49.55461 | -2.60469 | 4013 ft | 269 kts | 292° |
| 2026-04-26 10:38 | 49.56178 | -2.63138 | 4041 ft | 271 kts | 292° |
| 2026-04-26 10:38 | 49.56902 | -2.65834 | 4956 ft | 272 kts | 292° |
| 2026-04-26 10:39 | 49.57630 | -2.68543 | 6031 ft | 274 kts | 292° |
| 2026-04-26 10:39 | 49.58359 | -2.71256 | 7104 ft | 274 kts | 292° |
| 2026-04-26 10:39 | 49.59088 | -2.73977 | 8108 ft | 276 kts | 292° |
| 2026-04-26 10:39 | 49.59820 | -2.76729 | 9042 ft | 280 kts | 291° |
| 2026-04-26 10:40 | 49.60566 | -2.79533 | 9931 ft | 285 kts | 291° |
| 2026-04-26 10:40 | 49.61360 | -2.82391 | 10569 ft | 300 kts | 296° |
| 2026-04-26 10:40 | 49.62615 | -2.85130 | 10835 ft | 326 kts | 306° |
| 2026-04-26 10:40 | 49.64045 | -2.87993 | 11146 ft | 346 kts | 306° |
| 2026-04-26 10:41 | 49.65528 | -2.90970 | 11796 ft | 353 kts | 306° |
| 2026-04-26 10:41 | 49.67140 | -2.93861 | 12526 ft | 358 kts | 313° |
| 2026-04-26 10:41 | 49.68943 | -2.96557 | 13277 ft | 363 kts | 315° |
| 2026-04-26 10:41 | 49.70910 | -2.99053 | 14029 ft | 370 kts | 322° |
| 2026-04-26 10:42 | 49.73166 | -3.01024 | 14748 ft | 373 kts | 334° |
| 2026-04-26 10:42 | 49.74707 | -3.02045 | 15454 ft | 353 kts | 334° |
| 2026-04-26 10:42 | 49.77605 | -3.03849 | 16007 ft | 327 kts | 335° |
| 2026-04-26 10:42 | 49.79718 | -3.05110 | 16210 ft | 325 kts | 336° |
| 2026-04-26 10:43 | 49.81802 | -3.06364 | 16258 ft | 313 kts | 332° |
| 2026-04-26 10:43 | 49.83635 | -3.07978 | 16265 ft | 296 kts | 325° |
| 2026-04-26 10:43 | 49.85359 | -3.09586 | 16264 ft | 282 kts | 325° |
| 2026-04-26 10:43 | 49.87004 | -3.11116 | 16269 ft | 269 kts | 325° |
| 2026-04-26 10:44 | 49.88572 | -3.12577 | 16269 ft | 258 kts | 324° |
| 2026-04-26 10:44 | 49.90104 | -3.14016 | 16275 ft | 263 kts | 324° |
| 2026-04-26 10:44 | 49.91179 | -3.15036 | 16280 ft | 285 kts | 324° |
| 2026-04-26 10:44 | 49.92960 | -3.16735 | 16285 ft | 311 kts | 325° |
| 2026-04-26 10:45 | 49.94830 | -3.18510 | 16281 ft | 318 kts | 325° |
| 2026-04-26 10:45 | 49.97359 | -3.20889 | 16274 ft | 322 kts | 325° |
| 2026-04-26 10:45 | 49.99278 | -3.22688 | 16273 ft | 323 kts | 325° |
| 2026-04-26 10:45 | 50.01199 | -3.24496 | 16271 ft | 323 kts | 325° |
| 2026-04-26 10:46 | 50.02495 | -3.25719 | 16274 ft | 323 kts | 325° |
| 2026-04-26 10:46 | 50.04413 | -3.27535 | 16277 ft | 323 kts | 325° |
| 2026-04-26 10:46 | 50.06330 | -3.29351 | 16274 ft | 323 kts | 325° |
| 2026-04-26 10:46 | 50.08248 | -3.31168 | 16275 ft | 323 kts | 325° |
| 2026-04-26 10:47 | 50.10167 | -3.32987 | 16276 ft | 323 kts | 325° |
| 2026-04-26 10:47 | 50.12084 | -3.34806 | 16231 ft | 323 kts | 325° |
| 2026-04-26 10:47 | 50.14001 | -3.36628 | 15598 ft | 320 kts | 325° |
| 2026-04-26 10:47 | 50.15889 | -3.38427 | 15148 ft | 316 kts | 325° |
| 2026-04-26 10:48 | 50.17756 | -3.40210 | 14718 ft | 314 kts | 325° |
| 2026-04-26 10:48 | 50.19613 | -3.41984 | 14292 ft | 312 kts | 325° |
| 2026-04-26 10:48 | 50.21466 | -3.43754 | 13850 ft | 313 kts | 326° |
| 2026-04-26 10:48 | 50.23326 | -3.45534 | 13401 ft | 313 kts | 326° |
| 2026-04-26 10:49 | 50.25159 | -3.47289 | 12974 ft | 313 kts | 326° |
| 2026-04-26 10:49 | 50.27076 | -3.48899 | 12541 ft | 313 kts | 336° |
| 2026-04-26 10:49 | 50.29150 | -3.49766 | 12124 ft | 308 kts | 351° |
| 2026-04-26 10:49 | 50.31313 | -3.49855 | 11696 ft | 307 kts | 1° |
| 2026-04-26 10:50 | 50.33443 | -3.49723 | 11272 ft | 306 kts | 0° |
| 2026-04-26 10:50 | 50.35560 | -3.49601 | 10854 ft | 303 kts | 1° |
| 2026-04-26 10:50 | 50.37655 | -3.49490 | 10439 ft | 300 kts | 360° |
| 2026-04-26 10:50 | 50.39714 | -3.49792 | 10009 ft | 296 kts | 346° |
| 2026-04-26 10:51 | 50.41647 | -3.50829 | 9598 ft | 292 kts | 332° |
| 2026-04-26 10:51 | 50.45184 | -3.53733 | 8806 ft | 277 kts | 331° |
| 2026-04-26 10:51 | 50.46858 | -3.55111 | 8436 ft | 267 kts | 330° |
| 2026-04-26 10:52 | 50.48476 | -3.56446 | 8075 ft | 258 kts | 330° |
| 2026-04-26 10:52 | 50.50040 | -3.57742 | 7730 ft | 250 kts | 331° |
| 2026-04-26 10:52 | 50.51555 | -3.58997 | 7390 ft | 242 kts | 330° |
| 2026-04-26 10:52 | 50.53019 | -3.60207 | 7065 ft | 233 kts | 331° |
| 2026-04-26 10:53 | 50.54434 | -3.61376 | 6765 ft | 228 kts | 331° |
| 2026-04-26 10:53 | 50.55826 | -3.62529 | 6433 ft | 230 kts | 331° |
| 2026-04-26 10:53 | 50.57242 | -3.63705 | 6111 ft | 230 kts | 331° |
| 2026-04-26 10:54 | 50.60075 | -3.66058 | 5468 ft | 227 kts | 332° |
| 2026-04-26 10:54 | 50.61456 | -3.67228 | 5163 ft | 223 kts | 330° |
| 2026-04-26 10:54 | 50.62798 | -3.68418 | 4865 ft | 220 kts | 330° |
| 2026-04-26 10:54 | 50.64133 | -3.69614 | 4564 ft | 221 kts | 330° |
| 2026-04-26 10:55 | 50.65515 | -3.70696 | 4275 ft | 220 kts | 346° |
| 2026-04-26 10:55 | 50.66978 | -3.70805 | 4037 ft | 206 kts | 15° |
| 2026-04-26 10:55 | 50.68243 | -3.69921 | 3852 ft | 192 kts | 41° |
| 2026-04-26 10:55 | 50.69075 | -3.68425 | 3581 ft | 175 kts | 69° |
| 2026-04-26 10:56 | 50.69404 | -3.66651 | 3253 ft | 164 kts | 79° |
| 2026-04-26 10:56 | 50.69687 | -3.64975 | 3023 ft | 151 kts | 79° |
| 2026-04-26 10:56 | 50.69938 | -3.63447 | 2807 ft | 139 kts | 81° |
| 2026-04-26 10:56 | 50.70167 | -3.62018 | 2617 ft | 132 kts | 81° |
| 2026-04-26 10:57 | 50.70390 | -3.60626 | 2444 ft | 130 kts | 81° |
| 2026-04-26 10:57 | 50.70608 | -3.59251 | 2267 ft | 128 kts | 82° |
| 2026-04-26 10:57 | 50.70823 | -3.57897 | 2097 ft | 127 kts | 81° |
| 2026-04-26 10:57 | 50.71039 | -3.56536 | 1923 ft | 128 kts | 81° |
| 2026-04-26 10:58 | 50.71254 | -3.55178 | 1754 ft | 128 kts | 81° |
| 2026-04-26 10:58 | 50.71467 | -3.53830 | 1568 ft | 127 kts | 79° |
| 2026-04-26 10:58 | 50.71681 | -3.52478 | 1393 ft | 126 kts | 81° |
| 2026-04-26 10:58 | 50.71893 | -3.51135 | 1226 ft | 128 kts | 80° |
| 2026-04-26 10:59 | 50.72106 | -3.49787 | 1047 ft | 128 kts | 79° |
| 2026-04-26 10:59 | 50.72321 | -3.48423 | 859 ft | 128 kts | 80° |
| 2026-04-26 10:59 | 50.72539 | -3.47044 | 701 ft | 131 kts | 78° |
| 2026-04-26 10:59 | 50.72758 | -3.45651 | 509 ft | 132 kts | 78° |
| 2026-04-26 11:00 | 50.72980 | -3.44240 | 351 ft | 131 kts | 82° |
| 2026-04-26 11:00 | 50.73196 | -3.42852 | 155 ft | 130 kts | 82° |
| 2026-04-26 11:00 | 50.73395 | -3.41575 | 104 ft | 100 kts | 77° |
| 2026-04-26 11:00 | 50.73522 | -3.40762 | 111 ft | 62 kts | 76° |
| 2026-04-26 11:01 | 50.73598 | -3.40270 | 110 ft | 28 kts | 70° |
| 2026-04-26 11:01 | 50.73626 | -3.40038 | 109 ft | 17 kts | 96° |
| 2026-04-26 11:01 | 50.73649 | -3.39986 | 109 ft | 8 kts | 278° |
| 2026-04-26 11:01 | 50.73627 | -3.40145 | 108 ft | 22 kts | 257° |
| 2026-04-26 11:02 | 50.73583 | -3.40420 | 111 ft | 27 kts | 255° |
| 2026-04-26 11:02 | 50.73536 | -3.40722 | 111 ft | 30 kts | 257° |
| 2026-04-26 11:02 | 50.73489 | -3.41055 | 110 ft | 33 kts | 256° |
| 2026-04-26 11:02 | 50.73425 | -3.41444 | 103 ft | 39 kts | 254° |
| 2026-04-26 11:03 | 50.73355 | -3.41869 | 105 ft | 41 kts | 256° |
| 2026-04-26 11:03 | 50.73297 | -3.42228 | 111 ft | 14 kts | 255° |
| 2026-04-26 11:03 | 50.73237 | -3.42252 | 112 ft | 11 kts | 162° |
| 2026-04-26 11:03 | 50.73145 | -3.42216 | 108 ft | 16 kts | 168° |
| 2026-04-26 11:04 | 50.73083 | -3.42105 | 109 ft | 17 kts | 64° |
| 2026-04-26 11:04 | 50.73140 | -3.41920 | 107 ft | 20 kts | 61° |
| 2026-04-26 11:04 | 50.73151 | -3.41810 | 111 ft | 8 kts | 127° |
| 2026-04-26 11:04 | 50.73130 | -3.41773 | 112 ft | 1 kts | 130° |
| 2026-04-26 11:05 | 50.73128 | -3.41769 | 112 ft | 0 kts | 130° |